KGFK

Grand Forks International Airport

Grand Forks, North Dakota, USA
KGFK 221724Z 2218/2318 16013KT P6SM BKN035 FM221900 18013G20KT P6SM BKN040 FM230000 19013G19KT P6SM VCTS BKN050CB TEMPO 2300/2303 4SM TSRA BKN025CB FM230500 22007KT P6SM SCT120 FM231700 28012KT P6SM SCT060
Issued Valid From Valid To
Jul-22 @ 17:24 UTC
(3 hours ago)
Jul-22 @ 18:00 UTC
(2 hours ago)
Jul-23 @ 18:00 UTC
(in 22 hours)
Expired Click to View Jul-22 @ 18:00 to Jul-22 @ 19:00
KGFK 221724Z 2218/2318 16013KT P6SM BKN035
Wind Visibility Clouds
160° at 13 knots Greater than 6 miles
  • Broken at 3,500' AGL
From Jul-22 @ 19:00 to Jul-23 @ 00:00
FM221900 18013G20KT P6SM BKN040
Wind Visibility Clouds
180° at 13 knots
 Gusting to 20 knots
Greater than 6 miles
  • Broken at 4,000' AGL
Temporary Jul-23 @ 00:00 to Jul-23 @ 03:00
TEMPO 2300/2303 4SM TSRA BKN025CB
Visibility Clouds Conditions
4 miles
  • Broken at 2,500' AGL
  • Thunderstorm
  • Rain
From Jul-23 @ 00:00 to Jul-23 @ 05:00
FM230000 19013G19KT P6SM VCTS BKN050CB
Wind Visibility Clouds Conditions
190° at 13 knots
 Gusting to 19 knots
Greater than 6 miles
  • Broken at 5,000' AGL
  • Area Thunderstorm
From Jul-23 @ 05:00 to Jul-23 @ 17:00
FM230500 22007KT P6SM SCT120
Wind Visibility Clouds
220° at 7 knots Greater than 6 miles
  • Scattered at 12,000' AGL
From Jul-23 @ 17:00 to Jul-23 @ 18:00
FM231700 28012KT P6SM SCT060
Wind Visibility Clouds
280° at 12 knots Greater than 6 miles
  • Scattered at 6,000' AGL
KGFK 221724Z 2218/2318 16013KT P6SM BKN035 FM221900 18013G20KT P6SM BKN040 FM230000 19013G19KT P6SM VCTS BKN050CB TEMPO 2300/2303 4SM TSRA BKN025CB FM230500 22007KT P6SM SCT120 FM231700 28012KT P6SM SCT060
Issued Jul-22 @ 17:24 UTC
(3 hours ago)
Valid From Jul-22 @ 18:00 UTC
(2 hours ago)
Valid To Jul-23 @ 18:00 UTC
(in 22 hours)
Jul-22 @ 18:00 - Jul-22 @ 19:00
Wind Visibility
160° at 13 knots Greater than 6 miles
Clouds
  • Broken at 3,500' AGL
From Jul-22 @ 19:00 - Jul-23 @ 00:00
Wind Visibility
180° at 13 knots
 Gusting to 20 knots
Greater than 6 miles
Clouds
  • Broken at 4,000' AGL
Temporary Jul-23 @ 00:00 - Jul-23 @ 03:00
Clouds
  • Broken at 2,500' AGL
Conditions
  • Thunderstorm
  • Rain
From Jul-23 @ 00:00 - Jul-23 @ 05:00
Wind Visibility
190° at 13 knots
 Gusting to 19 knots
Greater than 6 miles
Clouds
  • Broken at 5,000' AGL
Conditions
  • Area Thunderstorm
From Jul-23 @ 05:00 - Jul-23 @ 17:00
Wind Visibility
220° at 7 knots Greater than 6 miles
Clouds
  • Scattered at 12,000' AGL
From Jul-23 @ 17:00 - Jul-23 @ 18:00
Wind Visibility
280° at 12 knots Greater than 6 miles
Clouds
  • Scattered at 6,000' AGL